• Join FlightAware (Why Join?)
  • Login
  • US Flag 
12:40PM EDT


 

Airport Tracker/Info


-or-


 

Live Flight TrackerFlight Track Log ✈ CFS692 ✈ 02-May-2013 ✈ KPDX - KRDM

Flight Track Log - Related Links

Times and Time Zones

All times are in EDT time to prevent confusion due to time zone crossing. See the CFS692 flight status page for this flight to view local times or setup timezone preferences in your user account.

Time Position Orientation Groundspeed Altitude Reporting Facility
EDT Latitude Longitude Course Direction KTS MPH feet Rate Location/Type
09:58AM 45.5844 -122.6142 179° South 84 97 500  Level Seattle Center
09:59AM 45.5561 -122.6133 179° South 102 117 1,600 1,020 Climbing Seattle Center
10:00AM 45.5339 -122.6008 158° South 81 93 2,700 1,140 Climbing Seattle Center
10:01AM 45.5142 -122.5781 141° Southeast 88 101 3,900 1,080 Climbing Seattle Center
10:02AM 45.4944 -122.5553 141° Southeast 90 104 4,900 900 Climbing Seattle Center
10:03AM 45.4828 -122.5397 137° Southeast 91 105 5,500 840 Climbing Seattle Center
10:03AM 45.4747 -122.5325 148° Southeast 98 113 5,800 780 Climbing Seattle Center
10:04AM 45.4625 -122.5158 136° Southeast 93 107 6,300 720 Climbing Seattle Center
10:04AM 45.4461 -122.4981 143° Southeast 108 124 6,700 660 Climbing Seattle Center
10:05AM 45.4369 -122.4869 140° Southeast 106 122 7,000 660 Climbing Seattle Center
10:06AM 45.4072 -122.4528 141° Southeast 126 145 7,800 780 Climbing Seattle Center
10:07AM 45.3769 -122.4172 140° Southeast 137 158 8,600 540 Climbing Seattle Center
10:08AM 45.3450 -122.3814 142° Southeast 145 167 8,900 420 Climbing Seattle Center
10:09AM 45.3111 -122.3425 141° Southeast 154 177 9,500 240 Climbing Seattle Center
10:10AM 45.2719 -122.2967 141° Southeast 162 186 9,500  Level Seattle Center
10:11AM 45.2311 -122.2486 140° Southeast 174 200 9,500  Level Seattle Center
10:12AM 45.1942 -122.2058 141° Southeast 172 198 9,500  Level Seattle Center
10:13AM 45.1556 -122.1631 142° Southeast 174 200 9,500  Level Seattle Center
10:14AM 45.1186 -122.1225 142° Southeast 170 196 9,500  Level Seattle Center
10:15AM 45.0819 -122.0794 140° Southeast 170 196 9,500  Level Seattle Center
10:16AM 45.0433 -122.0361 142° Southeast 174 200 9,500  Level Seattle Center
10:17AM 45.0044 -121.9919 141° Southeast 176 203 9,500  Level Seattle Center
10:18AM 44.9667 -121.9500 142° Southeast 176 203 9,500  Level Seattle Center
10:19AM 44.9311 -121.9078 140° Southeast 174 200 9,500  Level Seattle Center
10:20AM 44.8936 -121.8642 141° Southeast 175 201 9,500  Level Seattle Center
10:21AM 44.8567 -121.8228 142° Southeast 173 199 9,500  Level Seattle Center
10:22AM 44.8128 -121.7739 142° Southeast 170 196 9,500  Level Seattle Center
10:23AM 44.7764 -121.7339 142° Southeast 168 193 9,500  Level Seattle Center
10:24AM 44.7397 -121.6931 142° Southeast 168 193 9,500  Level Seattle Center
10:25AM 44.7039 -121.6525 141° Southeast 166 191 9,500  Level Seattle Center
10:26AM 44.6683 -121.6108 140° Southeast 168 193 9,500  Level Seattle Center
10:27AM 44.6331 -121.5706 141° Southeast 165 190 9,500  Level Seattle Center
10:28AM 44.5936 -121.5261 141° Southeast 166 191 9,500  Level Seattle Center
10:29AM 44.5572 -121.4861 142° Southeast 168 193 9,500 -120 Level Seattle Center
10:30AM 44.5211 -121.4458 142° Southeast 167 192 9,300 -360 Descending Seattle Center
10:31AM 44.4783 -121.4083 148° Southeast 180 207 8,800 -600 Descending Seattle Center
10:32AM 44.4367 -121.3736 149° Southeast 175 201 8,200 -600 Descending Seattle Center
10:33AM 44.3978 -121.3389 147° Southeast 167 192 7,700 -600 Descending Seattle Center
10:34AM 44.3600 -121.3047 147° Southeast 164 189 7,100 -660 Descending Seattle Center
10:35AM 44.3222 -121.2678 145° Southeast 166 191 6,400 -720 Descending Seattle Center